| time (UTC) | temp C | wind direction | speed KPH | gust KPH | rain 1hr cm | rain 24hr cm | rain mn cm | humidity % | barometer mb |
| 20260831002003 | 31 | 0 | 0.0 | 0.0 | 0.00 | 0.00 | 0.00 | 69 | 1008.0 |
| 20260831001508 | 32 | 0 | 0.0 | 0.0 | 0.00 | 0.00 | 0.00 | 68 | 1008.0 |
| 20260831000503 | 32 | 0 | 0.0 | 0.0 | 0.00 | 0.00 | 0.00 | 69 | 1008.0 |
| 20260830235504 | 32 | 0 | 0.0 | 0.0 | 0.00 | 0.00 | 0.00 | 67 | 1008.0 |
| 20260830234507 | 32 | 0 | 0.0 | 0.0 | 0.00 | 0.00 | 0.00 | 67 | 1007.9 |
| 20260830234003 | 32 | 171 | 0.0 | 3.2 | 0.00 | 0.00 | 0.00 | 67 | 1007.9 |
| 20260830233504 | 32 | 178 | 0.0 | 3.2 | 0.00 | 0.00 | 0.00 | 66 | 1007.9 |
| 20260830233007 | 32 | 174 | 0.0 | 3.2 | 0.00 | 0.00 | 0.00 | 65 | 1007.9 |
| 20260830232504 | 32 | 169 | 0.0 | 3.2 | 0.00 | 0.00 | 0.00 | 65 | 1007.9 |
| 20260830232003 | 32 | 165 | 0.0 | 3.2 | 0.00 | 0.00 | 0.00 | 66 | 1007.9 |
| 20260830231003 | 32 | 177 | 1.6 | 8.0 | 0.00 | 0.00 | 0.00 | 65 | 1007.9 |
| 20260830230504 | 32 | 183 | 1.6 | 8.0 | 0.00 | 0.00 | 0.00 | 64 | 1007.8 |
| 20260830230007 | 32 | 173 | 1.6 | 6.4 | 0.00 | 0.00 | 0.00 | 64 | 1007.8 |
| 20260830225503 | 32 | 176 | 3.2 | 8.0 | 0.00 | 0.00 | 0.00 | 65 | 1007.8 |
| 20260830225003 | 32 | 187 | 1.6 | 8.0 | 0.00 | 0.00 | 0.00 | 64 | 1007.8 |
| 20260830224508 | 32 | 194 | 1.6 | 8.0 | 0.00 | 0.00 | 0.00 | 64 | 1007.8 |
| 20260830224003 | 32 | 198 | 1.6 | 8.0 | 0.00 | 0.00 | 0.00 | 65 | 1007.8 |
| 20260830223503 | 32 | 198 | 3.2 | 8.0 | 0.00 | 0.00 | 0.00 | 64 | 1007.8 |
| 20260830223008 | 32 | 194 | 3.2 | 8.0 | 0.00 | 0.00 | 0.00 | 64 | 1007.9 |
| 20260830222503 | 32 | 193 | 3.2 | 9.7 | 0.00 | 0.00 | 0.00 | 63 | 1007.8 |
| 20260830222003 | 32 | 198 | 3.2 | 9.7 | 0.00 | 0.00 | 0.00 | 64 | 1007.8 |
| 20260830221508 | 32 | 188 | 3.2 | 8.0 | 0.00 | 0.00 | 0.00 | 63 | 1007.8 |
| 20260830221004 | 32 | 178 | 3.2 | 8.0 | 0.00 | 0.00 | 0.00 | 62 | 1007.7 |
| 20260830220503 | 32 | 187 | 3.2 | 8.0 | 0.00 | 0.00 | 0.00 | 62 | 1007.8 |
| 20260830220007 | 32 | 192 | 3.2 | 8.0 | 0.00 | 0.00 | 0.00 | 62 | 1007.8 |
| 20260830215503 | 32 | 194 | 3.2 | 8.0 | 0.00 | 0.00 | 0.00 | 63 | 1007.7 |
| 20260830215003 | 32 | 195 | 3.2 | 8.0 | 0.00 | 0.00 | 0.00 | 63 | 1007.7 |
| 20260830214508 | 32 | 182 | 3.2 | 9.7 | 0.00 | 0.00 | 0.00 | 63 | 1007.7 |
| 20260830214003 | 32 | 184 | 4.8 | 14.5 | 0.00 | 0.00 | 0.00 | 61 | 1007.7 |
| 20260830213503 | 32 | 190 | 3.2 | 14.5 | 0.00 | 0.00 | 0.00 | 61 | 1007.5 |
| 20260830212503 | 32 | 188 | 3.2 | 9.7 | 0.00 | 0.00 | 0.00 | 62 | 1007.6 |
| 20260830211508 | 32 | 195 | 1.6 | 6.4 | 0.00 | 0.00 | 0.00 | 63 | 1007.7 |
| 20260830211003 | 32 | 189 | 1.6 | 9.7 | 0.00 | 0.00 | 0.00 | 61 | 1007.7 |
| 20260830210503 | 32 | 184 | 1.6 | 9.7 | 0.00 | 0.00 | 0.00 | 62 | 1007.8 |
| 20260830205503 | 31 | 178 | 3.2 | 6.4 | 0.00 | 0.00 | 0.00 | 62 | 1008.1 |
| 20260830205003 | 31 | 178 | 3.2 | 12.9 | 0.00 | 0.00 | 0.00 | 60 | 1008.2 |
| 20260830204508 | 31 | 201 | 3.2 | 12.9 | 0.00 | 0.00 | 0.00 | 62 | 1008.2 |
| 20260830204003 | 31 | 211 | 3.2 | 9.7 | 0.00 | 0.00 | 0.00 | 59 | 1008.2 |
| 20260830203503 | 31 | 217 | 1.6 | 11.3 | 0.00 | 0.00 | 0.00 | 61 | 1008.2 |
| 20260830202503 | 31 | 202 | 1.6 | 8.0 | 0.00 | 0.00 | 0.00 | 62 | 1008.4 |
| 20260830202003 | 31 | 211 | 1.6 | 9.7 | 0.00 | 0.00 | 0.00 | 60 | 1008.4 |
| 20260830201507 | 31 | 213 | 1.6 | 9.7 | 0.00 | 0.00 | 0.00 | 61 | 1008.3 |
| 20260830201004 | 31 | 202 | 0.0 | 1.6 | 0.00 | 0.00 | 0.00 | 62 | 1008.3 |
| 20260830200503 | 31 | 200 | 1.6 | 9.7 | 0.00 | 0.00 | 0.00 | 63 | 1007.9 |
| 20260830200008 | 31 | 192 | 3.2 | 9.7 | 0.00 | 0.00 | 0.00 | 61 | 1008.2 |
| 20260830195503 | 31 | 194 | 3.2 | 9.7 | 0.00 | 0.00 | 0.00 | 61 | 1008.2 |
| 20260830195003 | 31 | 193 | 3.2 | 9.7 | 0.00 | 0.00 | 0.00 | 63 | 1008.3 |
| 20260830194508 | 31 | 183 | 3.2 | 9.7 | 0.00 | 0.00 | 0.00 | 71 | 1008.6 |
| 20260830194003 | 30 | 185 | 3.2 | 9.7 | 0.00 | 0.00 | 0.00 | 68 | 1008.5 |
| 20260830193503 | 30 | 185 | 1.6 | 9.7 | 0.00 | 0.00 | 0.00 | 69 | 1008.8 |
| 20260830193008 | 30 | 189 | 3.2 | 9.7 | 0.00 | 0.00 | 0.00 | 69 | 1008.8 |
| 20260830192003 | 30 | 184 | 1.6 | 6.4 | 0.00 | 0.00 | 0.00 | 64 | 1008.8 |
| 20260830191508 | 30 | 211 | 1.6 | 6.4 | 0.00 | 0.00 | 0.00 | 63 | 1008.8 |
| 20260830191003 | 30 | 219 | 3.2 | 9.7 | 0.00 | 0.08 | 0.00 | 63 | 1008.7 |
| 20260830190503 | 31 | 195 | 3.2 | 11.3 | 0.00 | 0.15 | 0.00 | 62 | 1008.7 |
| 20260830190009 | 31 | 183 | 3.2 | 11.3 | 0.00 | 0.15 | 0.00 | 62 | 1008.5 |
| 20260830185003 | 31 | 187 | 3.2 | 8.0 | 0.00 | 0.15 | 0.00 | 62 | 1008.3 |
| 20260830184508 | 31 | 192 | 3.2 | 9.7 | 0.00 | 0.15 | 0.00 | 61 | 1008.3 |
| 20260830184003 | 30 | 200 | 3.2 | 9.7 | 0.00 | 0.15 | 0.00 | 63 | 1008.5 |
| 20260830183503 | 30 | 190 | 3.2 | 9.7 | 0.00 | 0.15 | 0.00 | 64 | 1008.4 |
| 20260830183009 | 31 | 183 | 3.2 | 9.7 | 0.00 | 0.15 | 0.00 | 63 | 1008.3 |
| 20260830182504 | 30 | 189 | 1.6 | 6.4 | 0.00 | 0.15 | 0.00 | 64 | 1008.3 |
| 20260830182003 | 30 | 199 | 3.2 | 9.7 | 0.00 | 0.15 | 0.00 | 63 | 1008.5 |
| 20260830181508 | 30 | 208 | 3.2 | 9.7 | 0.00 | 0.15 | 0.00 | 62 | 1008.7 |
| 20260830181003 | 31 | 192 | 4.8 | 16.1 | 0.00 | 0.15 | 0.00 | 61 | 1008.8 |
| 20260830180503 | 31 | 188 | 4.8 | 16.1 | 0.00 | 0.15 | 0.00 | 62 | 1008.9 |
| 20260830180008 | 31 | 195 | 3.2 | 9.7 | 0.00 | 0.15 | 0.00 | 63 | 1009.0 |
| 20260830175504 | 30 | 197 | 1.6 | 9.7 | 0.00 | 0.15 | 0.00 | 64 | 1009.0 |
| 20260830175003 | 30 | 191 | 4.8 | 11.3 | 0.00 | 0.15 | 0.00 | 64 | 1009.1 |
| 20260830174508 | 30 | 190 | 4.8 | 12.9 | 0.00 | 0.15 | 0.00 | 62 | 1009.1 |
| 20260830173009 | 30 | 179 | 6.4 | 17.7 | 0.00 | 0.15 | 0.00 | 64 | 1009.1 |
| 20260830172503 | 30 | 188 | 6.4 | 17.7 | 0.00 | 0.15 | 0.00 | 64 | 1009.1 |
| 20260830171508 | 30 | 195 | 4.8 | 12.9 | 0.00 | 0.15 | 0.00 | 64 | 1009.0 |
| 20260830171003 | 30 | 193 | 4.8 | 12.9 | 0.00 | 0.15 | 0.00 | 65 | 1009.1 |
| 20260830170008 | 29 | 183 | 4.8 | 11.3 | 0.00 | 0.15 | 0.00 | 65 | 1009.1 |
| 20260830165504 | 29 | 182 | 4.8 | 11.3 | 0.00 | 0.15 | 0.00 | 64 | 1009.1 |
| 20260830165003 | 29 | 184 | 6.4 | 11.3 | 0.00 | 0.15 | 0.00 | 65 | 1009.0 |
| 20260830164508 | 28 | 189 | 4.8 | 11.3 | 0.00 | 0.15 | 0.00 | 65 | 1009.0 |
| 20260830164003 | 28 | 191 | 3.2 | 11.3 | 0.00 | 0.15 | 0.00 | 65 | 1009.0 |
| 20260830163008 | 28 | 186 | 4.8 | 11.3 | 0.00 | 0.15 | 0.00 | 64 | 1009.0 |
| 20260830162503 | 29 | 186 | 4.8 | 11.3 | 0.00 | 0.15 | 0.00 | 64 | 1009.0 |
| 20260830161004 | 28 | 191 | 4.8 | 11.3 | 0.00 | 0.15 | 0.00 | 65 | 1008.9 |
| 20260830160503 | 28 | 188 | 3.2 | 9.7 | 0.00 | 0.15 | 0.00 | 66 | 1009.0 |
| 20260830160008 | 28 | 190 | 4.8 | 11.3 | 0.00 | 0.15 | 0.00 | 68 | 1008.8 |
| 20260830155504 | 28 | 191 | 4.8 | 11.3 | 0.00 | 0.15 | 0.00 | 67 | 1008.7 |
| 20260830155003 | 28 | 188 | 4.8 | 11.3 | 0.00 | 0.15 | 0.00 | 66 | 1008.7 |
| 20260830154508 | 28 | 187 | 3.2 | 11.3 | 0.00 | 0.15 | 0.00 | 68 | 1008.8 |
| 20260830154003 | 28 | 189 | 3.2 | 9.7 | 0.00 | 0.15 | 0.00 | 69 | 1008.9 |
| 20260830152503 | 27 | 183 | 4.8 | 14.5 | 0.00 | 0.15 | 0.00 | 70 | 1009.0 |
| 20260830152003 | 27 | 188 | 4.8 | 14.5 | 0.00 | 0.15 | 0.00 | 68 | 1008.8 |
| 20260830151508 | 27 | 184 | 3.2 | 9.7 | 0.00 | 0.15 | 0.00 | 73 | 1008.9 |
| 20260830151003 | 27 | 178 | 3.2 | 9.7 | 0.00 | 0.15 | 0.00 | 71 | 1008.7 |
| 20260830150504 | 27 | 185 | 3.2 | 9.7 | 0.00 | 0.15 | 0.00 | 72 | 1008.7 |
| 20260830150008 | 27 | 187 | 1.6 | 9.7 | 0.00 | 0.15 | 0.00 | 72 | 1008.7 |
| 20260830145503 | 26 | 177 | 1.6 | 8.0 | 0.00 | 0.15 | 0.00 | 72 | 1008.8 |
| 20260830145003 | 26 | 176 | 3.2 | 8.0 | 0.00 | 0.15 | 0.00 | 72 | 1008.7 |
| 20260830144508 | 26 | 177 | 3.2 | 8.0 | 0.00 | 0.15 | 0.00 | 72 | 1008.7 |
| 20260830144003 | 26 | 174 | 1.6 | 8.0 | 0.00 | 0.15 | 0.00 | 72 | 1008.8 |
| 20260830143503 | 26 | 181 | 1.6 | 4.8 | 0.00 | 0.15 | 0.00 | 73 | 1008.8 |
| 20260830143008 | 26 | 196 | 0.0 | 4.8 | 0.00 | 0.15 | 0.00 | 73 | 1008.9 |
| 20260830142504 | 26 | 188 | 0.0 | 4.8 | 0.00 | 0.15 | 0.00 | 73 | 1008.7 |
| 20260830142003 | 26 | 181 | 0.0 | 6.4 | 0.00 | 0.15 | 0.00 | 74 | 1008.8 |
| 20260830141003 | 25 | 200 | 1.6 | 4.8 | 0.00 | 0.15 | 0.00 | 74 | 1008.7 |
| 20260830140503 | 25 | 201 | 0.0 | 4.8 | 0.00 | 0.15 | 0.00 | 74 | 1008.7 |
| 20260830140008 | 25 | 199 | 0.0 | 3.2 | 0.00 | 0.15 | 0.00 | 73 | 1008.8 |
| 20260830135504 | 25 | 193 | 1.6 | 4.8 | 0.00 | 0.15 | 0.00 | 73 | 1008.8 |
| 20260830135004 | 25 | 196 | 0.0 | 4.8 | 0.00 | 0.15 | 0.00 | 73 | 1008.7 |
| 20260830134508 | 25 | 189 | 1.6 | 6.4 | 0.00 | 0.15 | 0.00 | 73 | 1008.7 |
| 20260830134003 | 25 | 183 | 1.6 | 6.4 | 0.00 | 0.15 | 0.00 | 73 | 1008.7 |
| 20260830133503 | 25 | 191 | 1.6 | 6.4 | 0.00 | 0.15 | 0.00 | 74 | 1008.7 |
| 20260830133008 | 25 | 199 | 0.0 | 6.4 | 0.00 | 0.15 | 0.00 | 74 | 1008.8 |
| 20260830132503 | 25 | 174 | 0.0 | 3.2 | 0.00 | 0.15 | 0.00 | 74 | 1008.8 |
| 20260830132004 | 25 | 175 | 0.0 | 1.6 | 0.00 | 0.15 | 0.00 | 74 | 1008.8 |
| 20260830131507 | 25 | 175 | 0.0 | 1.6 | 0.00 | 0.15 | 0.00 | 74 | 1008.9 |
| 20260830130504 | 25 | 186 | 0.0 | 3.2 | 0.00 | 0.15 | 0.00 | 74 | 1008.9 |
| 20260830130008 | 25 | 188 | 0.0 | 3.2 | 0.00 | 0.15 | 0.00 | 74 | 1008.9 |
| 20260830125503 | 25 | 203 | 0.0 | 3.2 | 0.00 | 0.15 | 0.00 | 74 | 1008.8 |
| 20260830124508 | 25 | 224 | 0.0 | 3.2 | 0.00 | 0.15 | 0.00 | 73 | 1008.9 |
| 20260830124003 | 25 | 220 | 0.0 | 3.2 | 0.00 | 0.15 | 0.00 | 73 | 1008.9 |
| 20260830123009 | 25 | 201 | 0.0 | 4.8 | 0.00 | 0.15 | 0.00 | 72 | 1008.8 |
| 20260830122503 | 25 | 188 | 0.0 | 4.8 | 0.00 | 0.15 | 0.00 | 72 | 1008.7 |
| 20260830122003 | 25 | 189 | 0.0 | 4.8 | 0.00 | 0.15 | 0.00 | 72 | 1008.6 |
| 20260830121508 | 25 | 177 | 1.6 | 3.2 | 0.00 | 0.15 | 0.00 | 72 | 1008.5 |
| 20260830121003 | 25 | 177 | 0.0 | 3.2 | 0.00 | 0.15 | 0.00 | 72 | 1008.6 |
| 20260830120503 | 25 | 184 | 0.0 | 3.2 | 0.00 | 0.15 | 0.00 | 72 | 1008.7 |
| 20260830120009 | 25 | 202 | 0.0 | 1.6 | 0.00 | 0.15 | 0.00 | 72 | 1008.8 |
| 20260830115503 | 25 | 193 | 0.0 | 1.6 | 0.00 | 0.15 | 0.00 | 72 | 1008.9 |
| 20260830115003 | 25 | 208 | 0.0 | 3.2 | 0.00 | 0.15 | 0.00 | 71 | 1008.7 |
| 20260830114003 | 25 | 186 | 1.6 | 6.4 | 0.00 | 0.15 | 0.00 | 70 | 1008.5 |
| 20260830113503 | 25 | 182 | 1.6 | 6.4 | 0.00 | 0.15 | 0.00 | 70 | 1008.5 |
| 20260830113008 | 25 | 175 | 1.6 | 6.4 | 0.00 | 0.15 | 0.00 | 71 | 1008.6 |
| 20260830112003 | 25 | 184 | 0.0 | 3.2 | 0.00 | 0.15 | 0.00 | 71 | 1008.9 |
| 20260830111508 | 25 | 167 | 0.0 | 3.2 | 0.00 | 0.15 | 0.00 | 71 | 1008.8 |
| 20260830111003 | 25 | 321 | 0.0 | 1.6 | 0.00 | 0.15 | 0.00 | 72 | 1009.0 |
| 20260830110503 | 25 | 321 | 0.0 | 1.6 | 0.00 | 0.15 | 0.00 | 71 | 1009.2 |
| 20260830110009 | 25 | 326 | 0.0 | 1.6 | 0.00 | 0.15 | 0.00 | 70 | 1009.1 |
| 20260830105504 | 26 | 334 | 0.0 | 1.6 | 0.00 | 0.15 | 0.00 | 71 | 1009.1 |
| 20260830105003 | 26 | 169 | 0.0 | 3.2 | 0.00 | 0.15 | 0.00 | 70 | 1009.1 |
| 20260830104508 | 26 | 169 | 0.0 | 3.2 | 0.00 | 0.15 | 0.00 | 70 | 1009.0 |
| 20260830104003 | 26 | 174 | 0.0 | 3.2 | 0.00 | 0.15 | 0.00 | 70 | 1009.0 |
| 20260830103503 | 26 | 190 | 0.0 | 4.8 | 0.00 | 0.15 | 0.00 | 70 | 1009.2 |
| 20260830103009 | 26 | 172 | 1.6 | 6.4 | 0.00 | 0.15 | 0.00 | 70 | 1009.3 |
| 20260830102503 | 26 | 162 | 0.0 | 6.4 | 0.00 | 0.15 | 0.00 | 70 | 1009.3 |
| 20260830102003 | 26 | 184 | 0.0 | 1.6 | 0.00 | 0.15 | 0.00 | 70 | 1009.4 |
| 20260830101508 | 26 | 173 | 0.0 | 3.2 | 0.00 | 0.15 | 0.00 | 70 | 1009.4 |
| 20260830101004 | 26 | 175 | 0.0 | 4.8 | 0.00 | 0.15 | 0.00 | 69 | 1009.3 |
| 20260830100503 | 26 | 184 | 1.6 | 4.8 | 0.00 | 0.15 | 0.00 | 69 | 1009.3 |
| 20260830100008 | 26 | 170 | 1.6 | 4.8 | 0.00 | 0.15 | 0.00 | 68 | 1009.3 |
| 20260830095503 | 26 | 160 | 0.0 | 4.8 | 0.00 | 0.15 | 0.00 | 69 | 1009.3 |
| 20260830095003 | 26 | 156 | 0.0 | 1.6 | 0.00 | 0.15 | 0.00 | 70 | 1009.3 |
| 20260830094508 | 26 | 162 | 0.0 | 4.8 | 0.00 | 0.15 | 0.00 | 71 | 1009.4 |
| 20260830094003 | 26 | 184 | 0.0 | 4.8 | 0.00 | 0.15 | 0.00 | 71 | 1009.4 |
| 20260830093504 | 26 | 204 | 0.0 | 3.2 | 0.00 | 0.15 | 0.00 | 71 | 1009.2 |
| 20260830093008 | 26 | 205 | 0.0 | 1.6 | 0.00 | 0.15 | 0.00 | 71 | 1009.3 |
| 20260830092503 | 26 | 189 | 1.6 | 6.4 | 0.00 | 0.15 | 0.00 | 70 | 1009.3 |
| 20260830092003 | 26 | 185 | 1.6 | 6.4 | 0.00 | 0.15 | 0.00 | 70 | 1009.0 |
| 20260830091003 | 26 | 199 | 1.6 | 6.4 | 0.00 | 0.15 | 0.00 | 70 | 1008.8 |
| 20260830090504 | 26 | 201 | 1.6 | 4.8 | 0.00 | 0.15 | 0.00 | 71 | 1008.7 |
| 20260830085504 | 26 | 192 | 1.6 | 8.0 | 0.00 | 0.15 | 0.00 | 71 | 1008.7 |
| 20260830085003 | 26 | 199 | 3.2 | 6.4 | 0.00 | 0.15 | 0.00 | 71 | 1008.7 |
| 20260830084508 | 26 | 194 | 3.2 | 9.7 | 0.00 | 0.15 | 0.00 | 71 | 1008.7 |
| 20260830084003 | 25 | 189 | 1.6 | 9.7 | 0.00 | 0.15 | 0.00 | 72 | 1008.7 |
| 20260830083503 | 25 | 189 | 1.6 | 6.4 | 0.00 | 0.15 | 0.00 | 72 | 1008.8 |
| 20260830083008 | 25 | 195 | 1.6 | 6.4 | 0.00 | 0.15 | 0.00 | 72 | 1008.8 |
| 20260830082504 | 25 | 193 | 3.2 | 6.4 | 0.00 | 0.15 | 0.00 | 72 | 1008.8 |
| 20260830082004 | 25 | 190 | 1.6 | 6.4 | 0.00 | 0.15 | 0.00 | 72 | 1008.7 |
| 20260830081507 | 25 | 194 | 1.6 | 6.4 | 0.00 | 0.15 | 0.00 | 72 | 1008.7 |
| 20260830080503 | 25 | 200 | 3.2 | 6.4 | 0.00 | 0.15 | 0.00 | 72 | 1008.6 |
| 20260830080008 | 25 | 197 | 1.6 | 4.8 | 0.00 | 0.15 | 0.00 | 72 | 1008.7 |
| 20260830075503 | 25 | 189 | 1.6 | 6.4 | 0.00 | 0.15 | 0.00 | 73 | 1008.7 |
| 20260830074508 | 25 | 192 | 1.6 | 6.4 | 0.00 | 0.15 | 0.00 | 72 | 1008.6 |
| 20260830073503 | 26 | 190 | 1.6 | 4.8 | 0.00 | 0.15 | 0.00 | 72 | 1008.5 |
| 20260830073008 | 26 | 197 | 1.6 | 9.7 | 0.00 | 0.15 | 0.00 | 72 | 1008.5 |
| 20260830072503 | 26 | 200 | 1.6 | 9.7 | 0.00 | 0.15 | 0.00 | 72 | 1008.4 |
| 20260830072003 | 26 | 197 | 3.2 | 9.7 | 0.00 | 0.15 | 0.00 | 71 | 1008.5 |
| 20260830071003 | 26 | 191 | 3.2 | 8.0 | 0.00 | 0.15 | 0.00 | 71 | 1008.6 |
| 20260830070504 | 26 | 191 | 3.2 | 8.0 | 0.00 | 0.15 | 0.00 | 71 | 1008.6 |
| 20260830065503 | 26 | 193 | 3.2 | 9.7 | 0.00 | 0.15 | 0.00 | 71 | 1008.6 |
| 20260830064508 | 26 | 203 | 3.2 | 8.0 | 0.00 | 0.15 | 0.00 | 71 | 1008.6 |
| 20260830064003 | 26 | 197 | 3.2 | 8.0 | 0.00 | 0.15 | 0.00 | 70 | 1008.7 |
| 20260830063503 | 26 | 198 | 3.2 | 8.0 | 0.00 | 0.15 | 0.00 | 70 | 1008.8 |
| 20260830062503 | 26 | 196 | 3.2 | 9.7 | 0.00 | 0.15 | 0.00 | 71 | 1008.8 |
| 20260830062003 | 27 | 194 | 3.2 | 9.7 | 0.00 | 0.15 | 0.00 | 71 | 1008.9 |
| 20260830061508 | 27 | 197 | 3.2 | 8.0 | 0.00 | 0.15 | 0.00 | 71 | 1008.8 |
| 20260830061003 | 27 | 196 | 3.2 | 11.3 | 0.00 | 0.15 | 0.00 | 71 | 1008.8 |
| 20260830060503 | 27 | 197 | 4.8 | 11.3 | 0.00 | 0.15 | 0.00 | 71 | 1008.7 |
| 20260830060008 | 27 | 193 | 3.2 | 8.0 | 0.00 | 0.15 | 0.00 | 70 | 1008.7 |
| 20260830055504 | 27 | 192 | 3.2 | 9.7 | 0.00 | 0.15 | 0.00 | 70 | 1008.7 |
| 20260830055003 | 27 | 189 | 4.8 | 9.7 | 0.00 | 0.15 | 0.00 | 70 | 1008.7 |
| 20260830054508 | 27 | 187 | 4.8 | 8.0 | 0.00 | 0.15 | 0.00 | 70 | 1008.7 |
| 20260830054003 | 27 | 190 | 4.8 | 11.3 | 0.00 | 0.15 | 0.00 | 70 | 1008.7 |
| 20260830053503 | 27 | 193 | 4.8 | 11.3 | 0.00 | 0.15 | 0.00 | 70 | 1008.7 |
| 20260830053008 | 27 | 196 | 4.8 | 8.0 | 0.00 | 0.15 | 0.00 | 70 | 1008.6 |
| 20260830052504 | 27 | 195 | 4.8 | 9.7 | 0.00 | 0.15 | 0.00 | 70 | 1008.7 |
| 20260830052003 | 27 | 195 | 4.8 | 11.3 | 0.00 | 0.15 | 0.00 | 70 | 1008.6 |
| 20260830051004 | 27 | 191 | 4.8 | 14.5 | 0.00 | 0.15 | 0.00 | 70 | 1008.5 |
| 20260830050503 | 28 | 190 | 4.8 | 14.5 | 0.00 | 0.15 | 0.00 | 70 | 1008.5 |
| 20260830050010 | 28 | 189 | 4.8 | 11.3 | 0.00 | 0.15 | 0.00 | 70 | 1008.6 |
| 20260830045504 | 28 | 194 | 4.8 | 11.3 | 0.00 | 0.15 | 0.15 | 69 | 1008.5 |
| 20260830045003 | 28 | 197 | 4.8 | 11.3 | 0.00 | 0.15 | 0.15 | 69 | 1008.4 |
| 20260830044508 | 28 | 197 | 4.8 | 14.5 | 0.00 | 0.15 | 0.15 | 69 | 1008.5 |
| 20260830044003 | 28 | 194 | 4.8 | 14.5 | 0.00 | 0.15 | 0.15 | 69 | 1008.5 |
| 20260830043503 | 28 | 192 | 4.8 | 12.9 | 0.00 | 0.15 | 0.15 | 69 | 1008.5 |
| 20260830043009 | 28 | 193 | 4.8 | 9.7 | 0.00 | 0.15 | 0.15 | 69 | 1008.6 |
| 20260830042503 | 28 | 192 | 4.8 | 14.5 | 0.00 | 0.15 | 0.15 | 69 | 1008.6 |
| 20260830042003 | 28 | 192 | 4.8 | 14.5 | 0.00 | 0.15 | 0.15 | 69 | 1008.7 |
| 20260830041508 | 28 | 187 | 6.4 | 16.1 | 0.00 | 0.15 | 0.15 | 69 | 1008.6 |
| 20260830041003 | 28 | 186 | 6.4 | 16.1 | 0.00 | 0.15 | 0.15 | 70 | 1008.5 |
| 20260830040504 | 28 | 190 | 6.4 | 12.9 | 0.00 | 0.15 | 0.15 | 69 | 1008.6 |
| 20260830040008 | 28 | 191 | 4.8 | 12.9 | 0.00 | 0.15 | 0.15 | 70 | 1008.6 |
| 20260830035504 | 28 | 193 | 4.8 | 11.3 | 0.00 | 0.15 | 0.15 | 70 | 1008.6 |
| 20260830034003 | 29 | 194 | 4.8 | 12.9 | 0.00 | 0.15 | 0.15 | 70 | 1008.4 |
| 20260830033504 | 29 | 197 | 4.8 | 12.9 | 0.00 | 0.15 | 0.15 | 70 | 1008.4 |
| 20260830032503 | 29 | 195 | 4.8 | 16.1 | 0.00 | 0.15 | 0.15 | 70 | 1008.4 |
| 20260830031508 | 29 | 192 | 4.8 | 14.5 | 0.00 | 0.15 | 0.15 | 70 | 1008.2 |
| 20260830030503 | 29 | 192 | 3.2 | 11.3 | 0.00 | 0.15 | 0.15 | 69 | 1008.2 |
| 20260830030007 | 29 | 193 | 4.8 | 11.3 | 0.00 | 0.15 | 0.15 | 70 | 1008.2 |
| 20260830025503 | 29 | 192 | 4.8 | 9.7 | 0.00 | 0.15 | 0.15 | 70 | 1008.2 |
| 20260830025004 | 29 | 193 | 4.8 | 11.3 | 0.00 | 0.15 | 0.15 | 71 | 1008.2 |
| 20260830024508 | 29 | 195 | 3.2 | 11.3 | 0.00 | 0.15 | 0.15 | 71 | 1008.2 |
| 20260830024004 | 29 | 192 | 3.2 | 8.0 | 0.00 | 0.15 | 0.15 | 72 | 1008.1 |
| 20260830023504 | 29 | 188 | 3.2 | 8.0 | 0.00 | 0.15 | 0.15 | 72 | 1008.1 |
| 20260830023008 | 29 | 188 | 3.2 | 8.0 | 0.00 | 0.15 | 0.15 | 72 | 1008.0 |
| 20260830022504 | 29 | 186 | 3.2 | 9.7 | 0.00 | 0.15 | 0.15 | 72 | 1008.0 |
| 20260830022003 | 29 | 187 | 3.2 | 9.7 | 0.00 | 0.15 | 0.15 | 72 | 1007.8 |
| 20260830021003 | 30 | 179 | 4.8 | 14.5 | 0.00 | 0.15 | 0.15 | 72 | 1007.7 |
| 20260830020504 | 30 | 186 | 4.8 | 11.3 | 0.00 | 0.15 | 0.15 | 72 | 1007.7 |
| 20260830015503 | 30 | 191 | 3.2 | 9.7 | 0.00 | 0.15 | 0.15 | 73 | 1007.6 |
| 20260830014508 | 30 | 187 | 3.2 | 11.3 | 0.00 | 0.15 | 0.15 | 73 | 1007.6 |
| 20260830014004 | 30 | 191 | 1.6 | 11.3 | 0.00 | 0.15 | 0.15 | 74 | 1007.5 |
| 20260830013008 | 30 | 190 | 3.2 | 9.7 | 0.00 | 0.15 | 0.15 | 74 | 1007.4 |
| 20260830012503 | 30 | 187 | 3.2 | 6.4 | 0.00 | 0.15 | 0.15 | 74 | 1007.4 |
| 20260830012003 | 30 | 184 | 3.2 | 6.4 | 0.00 | 0.15 | 0.15 | 74 | 1007.4 |
| 20260830011507 | 30 | 184 | 3.2 | 9.7 | 0.00 | 0.15 | 0.15 | 74 | 1007.3 |
| 20260830011003 | 30 | 188 | 3.2 | 9.7 | 0.00 | 0.15 | 0.15 | 74 | 1007.3 |
| 20260830010504 | 30 | 197 | 3.2 | 8.0 | 0.00 | 0.15 | 0.15 | 74 | 1007.3 |
| 20260830010008 | 30 | 196 | 3.2 | 9.7 | 0.00 | 0.15 | 0.15 | 73 | 1007.3 |
| 20260830005504 | 30 | 189 | 3.2 | 9.7 | 0.00 | 0.15 | 0.15 | 73 | 1007.3 |
| 20260830005003 | 31 | 183 | 1.6 | 6.4 | 0.00 | 0.15 | 0.15 | 73 | 1007.4 |
| 20260830004508 | 31 | 179 | 3.2 | 11.3 | 0.00 | 0.15 | 0.15 | 73 | 1007.4 |
| 20260830002503 | 31 | 177 | 3.2 | 9.7 | 0.00 | 0.15 | 0.15 | 72 | 1007.6 |